sensor_id;sensor_type;location;lat;lon;timestamp;P1;durP1;ratioP1;P2;durP2;ratioP2
79149;SDS011;68563;45.644;13.782;2023-07-09T00:02:21;6.28;;;4.55;;
79149;SDS011;68563;45.644;13.782;2023-07-09T00:04:47;5.50;;;4.40;;
79149;SDS011;68563;45.644;13.782;2023-07-09T00:09:50;7.57;;;4.72;;
79149;SDS011;68563;45.644;13.782;2023-07-09T00:12:16;9.48;;;4.53;;
79149;SDS011;68563;45.644;13.782;2023-07-09T00:14:43;8.18;;;4.55;;
79149;SDS011;68563;45.644;13.782;2023-07-09T00:17:18;7.63;;;4.90;;
79149;SDS011;68563;45.644;13.782;2023-07-09T00:19:55;8.60;;;4.82;;
79149;SDS011;68563;45.644;13.782;2023-07-09T00:22:21;7.63;;;4.68;;
79149;SDS011;68563;45.644;13.782;2023-07-09T00:24:49;7.15;;;4.55;;
79149;SDS011;68563;45.644;13.782;2023-07-09T00:27:19;5.60;;;4.00;;
79149;SDS011;68563;45.644;13.782;2023-07-09T00:29:47;6.70;;;4.40;;
79149;SDS011;68563;45.644;13.782;2023-07-09T00:32:16;7.85;;;4.53;;
79149;SDS011;68563;45.644;13.782;2023-07-09T00:34:45;6.45;;;4.00;;
79149;SDS011;68563;45.644;13.782;2023-07-09T00:37:13;6.13;;;4.43;;
79149;SDS011;68563;45.644;13.782;2023-07-09T00:39:40;5.65;;;4.50;;
79149;SDS011;68563;45.644;13.782;2023-07-09T00:42:16;6.85;;;4.72;;
79149;SDS011;68563;45.644;13.782;2023-07-09T00:44:45;7.78;;;4.35;;
79149;SDS011;68563;45.644;13.782;2023-07-09T00:47:21;6.60;;;3.90;;
79149;SDS011;68563;45.644;13.782;2023-07-09T00:49:50;5.95;;;4.40;;
79149;SDS011;68563;45.644;13.782;2023-07-09T00:52:28;5.97;;;4.47;;
79149;SDS011;68563;45.644;13.782;2023-07-09T00:57:28;5.38;;;4.00;;
79149;SDS011;68563;45.644;13.782;2023-07-09T00:59:56;6.45;;;4.68;;
79149;SDS011;68563;45.644;13.782;2023-07-09T01:02:32;8.70;;;4.35;;
79149;SDS011;68563;45.644;13.782;2023-07-09T01:04:59;6.22;;;4.55;;
79149;SDS011;68563;45.644;13.782;2023-07-09T01:07:27;5.30;;;4.30;;
79149;SDS011;68563;45.644;13.782;2023-07-09T01:09:53;7.60;;;4.57;;
79149;SDS011;68563;45.644;13.782;2023-07-09T01:12:19;5.72;;;4.35;;
79149;SDS011;68563;45.644;13.782;2023-07-09T01:14:46;6.72;;;4.60;;
79149;SDS011;68563;45.644;13.782;2023-07-09T01:17:17;6.10;;;4.50;;
79149;SDS011;68563;45.644;13.782;2023-07-09T01:19:43;5.80;;;4.22;;
79149;SDS011;68563;45.644;13.782;2023-07-09T01:22:14;6.85;;;4.50;;
79149;SDS011;68563;45.644;13.782;2023-07-09T01:27:22;5.93;;;4.32;;
79149;SDS011;68563;45.644;13.782;2023-07-09T01:29:53;6.30;;;4.13;;
79149;SDS011;68563;45.644;13.782;2023-07-09T01:32:19;7.40;;;4.38;;
79149;SDS011;68563;45.644;13.782;2023-07-09T01:34:47;5.90;;;4.25;;
79149;SDS011;68563;45.644;13.782;2023-07-09T01:37:17;5.70;;;4.20;;
79149;SDS011;68563;45.644;13.782;2023-07-09T01:39:46;6.57;;;4.22;;
79149;SDS011;68563;45.644;13.782;2023-07-09T01:42:12;7.18;;;4.32;;
79149;SDS011;68563;45.644;13.782;2023-07-09T01:44:38;7.05;;;4.28;;
79149;SDS011;68563;45.644;13.782;2023-07-09T01:47:05;6.18;;;4.15;;
79149;SDS011;68563;45.644;13.782;2023-07-09T01:49:31;7.03;;;4.47;;
79149;SDS011;68563;45.644;13.782;2023-07-09T01:51:58;5.68;;;4.10;;
79149;SDS011;68563;45.644;13.782;2023-07-09T01:54:27;6.47;;;4.25;;
79149;SDS011;68563;45.644;13.782;2023-07-09T01:56:54;6.72;;;4.05;;
79149;SDS011;68563;45.644;13.782;2023-07-09T01:59:26;7.22;;;4.43;;
79149;SDS011;68563;45.644;13.782;2023-07-09T02:01:52;5.82;;;4.22;;
79149;SDS011;68563;45.644;13.782;2023-07-09T02:04:18;6.38;;;4.50;;
79149;SDS011;68563;45.644;13.782;2023-07-09T02:06:44;5.75;;;4.30;;
79149;SDS011;68563;45.644;13.782;2023-07-09T02:09:09;6.10;;;4.63;;
79149;SDS011;68563;45.644;13.782;2023-07-09T02:11:34;6.07;;;4.28;;
79149;SDS011;68563;45.644;13.782;2023-07-09T02:14:00;6.65;;;4.25;;
79149;SDS011;68563;45.644;13.782;2023-07-09T02:16:25;6.43;;;4.32;;
79149;SDS011;68563;45.644;13.782;2023-07-09T02:18:51;6.38;;;4.25;;
79149;SDS011;68563;45.644;13.782;2023-07-09T02:21:16;5.13;;;4.15;;
79149;SDS011;68563;45.644;13.782;2023-07-09T02:23:41;5.60;;;4.40;;
79149;SDS011;68563;45.644;13.782;2023-07-09T02:26:07;6.60;;;4.60;;
79149;SDS011;68563;45.644;13.782;2023-07-09T02:28:32;6.95;;;4.45;;
79149;SDS011;68563;45.644;13.782;2023-07-09T02:30:57;5.43;;;4.05;;
79149;SDS011;68563;45.644;13.782;2023-07-09T02:33:23;6.28;;;4.45;;
79149;SDS011;68563;45.644;13.782;2023-07-09T02:35:48;5.20;;;4.03;;
79149;SDS011;68563;45.644;13.782;2023-07-09T02:38:14;7.60;;;4.60;;
79149;SDS011;68563;45.644;13.782;2023-07-09T02:40:39;6.30;;;4.40;;
79149;SDS011;68563;45.644;13.782;2023-07-09T02:43:04;6.22;;;4.20;;
79149;SDS011;68563;45.644;13.782;2023-07-09T02:45:30;7.82;;;4.65;;
79149;SDS011;68563;45.644;13.782;2023-07-09T02:47:55;5.90;;;4.28;;
79149;SDS011;68563;45.644;13.782;2023-07-09T02:50:21;6.63;;;4.38;;
79149;SDS011;68563;45.644;13.782;2023-07-09T02:52:46;5.28;;;4.30;;
79149;SDS011;68563;45.644;13.782;2023-07-09T02:55:12;7.72;;;4.47;;
79149;SDS011;68563;45.644;13.782;2023-07-09T02:57:37;8.13;;;4.85;;
79149;SDS011;68563;45.644;13.782;2023-07-09T03:00:02;6.95;;;4.88;;
79149;SDS011;68563;45.644;13.782;2023-07-09T03:02:30;7.30;;;4.55;;
79149;SDS011;68563;45.644;13.782;2023-07-09T03:04:56;6.25;;;4.40;;
79149;SDS011;68563;45.644;13.782;2023-07-09T03:07:21;6.25;;;4.50;;
79149;SDS011;68563;45.644;13.782;2023-07-09T03:09:46;6.00;;;4.28;;
79149;SDS011;68563;45.644;13.782;2023-07-09T03:12:12;5.82;;;4.43;;
79149;SDS011;68563;45.644;13.782;2023-07-09T03:14:37;7.80;;;4.50;;
79149;SDS011;68563;45.644;13.782;2023-07-09T03:17:02;7.90;;;4.32;;
79149;SDS011;68563;45.644;13.782;2023-07-09T03:19:28;5.88;;;4.45;;
79149;SDS011;68563;45.644;13.782;2023-07-09T03:21:54;6.07;;;4.22;;
79149;SDS011;68563;45.644;13.782;2023-07-09T03:24:19;5.78;;;4.35;;
79149;SDS011;68563;45.644;13.782;2023-07-09T03:26:45;6.57;;;4.50;;
79149;SDS011;68563;45.644;13.782;2023-07-09T03:29:11;8.73;;;4.60;;
79149;SDS011;68563;45.644;13.782;2023-07-09T03:31:37;7.47;;;4.75;;
79149;SDS011;68563;45.644;13.782;2023-07-09T03:34:02;6.40;;;4.50;;
79149;SDS011;68563;45.644;13.782;2023-07-09T03:36:28;6.05;;;4.70;;
79149;SDS011;68563;45.644;13.782;2023-07-09T03:38:54;6.43;;;4.93;;
79149;SDS011;68563;45.644;13.782;2023-07-09T03:41:19;7.80;;;4.47;;
79149;SDS011;68563;45.644;13.782;2023-07-09T03:43:45;6.82;;;4.88;;
79149;SDS011;68563;45.644;13.782;2023-07-09T03:46:11;6.03;;;4.72;;
79149;SDS011;68563;45.644;13.782;2023-07-09T03:48:37;8.75;;;4.95;;
79149;SDS011;68563;45.644;13.782;2023-07-09T03:51:02;7.03;;;4.50;;
79149;SDS011;68563;45.644;13.782;2023-07-09T03:53:28;6.97;;;5.07;;
79149;SDS011;68563;45.644;13.782;2023-07-09T03:55:54;8.75;;;5.25;;
79149;SDS011;68563;45.644;13.782;2023-07-09T03:58:21;8.10;;;5.30;;
79149;SDS011;68563;45.644;13.782;2023-07-09T04:00:46;6.15;;;4.57;;
79149;SDS011;68563;45.644;13.782;2023-07-09T04:03:12;7.05;;;5.05;;
79149;SDS011;68563;45.644;13.782;2023-07-09T04:05:38;6.63;;;4.60;;
79149;SDS011;68563;45.644;13.782;2023-07-09T04:08:03;6.38;;;4.45;;
79149;SDS011;68563;45.644;13.782;2023-07-09T04:10:30;6.50;;;4.85;;
79149;SDS011;68563;45.644;13.782;2023-07-09T04:12:55;6.50;;;4.72;;
79149;SDS011;68563;45.644;13.782;2023-07-09T04:15:20;6.68;;;4.60;;
79149;SDS011;68563;45.644;13.782;2023-07-09T04:17:46;7.20;;;4.25;;
79149;SDS011;68563;45.644;13.782;2023-07-09T04:20:11;7.25;;;4.50;;
79149;SDS011;68563;45.644;13.782;2023-07-09T04:22:38;8.32;;;4.72;;
79149;SDS011;68563;45.644;13.782;2023-07-09T04:25:05;7.47;;;5.00;;
79149;SDS011;68563;45.644;13.782;2023-07-09T04:27:34;8.40;;;4.80;;
79149;SDS011;68563;45.644;13.782;2023-07-09T04:30:00;6.55;;;4.43;;
79149;SDS011;68563;45.644;13.782;2023-07-09T04:32:26;6.88;;;4.40;;
79149;SDS011;68563;45.644;13.782;2023-07-09T04:34:51;9.50;;;5.00;;
79149;SDS011;68563;45.644;13.782;2023-07-09T04:37:17;6.25;;;4.85;;
79149;SDS011;68563;45.644;13.782;2023-07-09T04:39:42;7.45;;;4.95;;
79149;SDS011;68563;45.644;13.782;2023-07-09T04:42:12;8.82;;;5.03;;
79149;SDS011;68563;45.644;13.782;2023-07-09T04:44:39;8.68;;;4.65;;
79149;SDS011;68563;45.644;13.782;2023-07-09T04:47:05;8.23;;;4.82;;
79149;SDS011;68563;45.644;13.782;2023-07-09T04:49:30;9.02;;;5.32;;
79149;SDS011;68563;45.644;13.782;2023-07-09T04:51:56;6.82;;;4.85;;
79149;SDS011;68563;45.644;13.782;2023-07-09T04:54:22;6.40;;;4.53;;
79149;SDS011;68563;45.644;13.782;2023-07-09T04:56:48;7.25;;;4.70;;
79149;SDS011;68563;45.644;13.782;2023-07-09T04:59:14;8.93;;;5.05;;
79149;SDS011;68563;45.644;13.782;2023-07-09T05:01:40;6.53;;;4.82;;
79149;SDS011;68563;45.644;13.782;2023-07-09T05:04:06;8.05;;;4.80;;
79149;SDS011;68563;45.644;13.782;2023-07-09T05:06:31;6.80;;;4.88;;
79149;SDS011;68563;45.644;13.782;2023-07-09T05:08:57;7.25;;;4.60;;
79149;SDS011;68563;45.644;13.782;2023-07-09T05:11:22;7.30;;;4.55;;
79149;SDS011;68563;45.644;13.782;2023-07-09T05:13:48;7.82;;;5.00;;
79149;SDS011;68563;45.644;13.782;2023-07-09T05:16:13;8.50;;;4.55;;
79149;SDS011;68563;45.644;13.782;2023-07-09T05:18:39;7.85;;;4.78;;
79149;SDS011;68563;45.644;13.782;2023-07-09T05:21:04;7.72;;;5.07;;
79149;SDS011;68563;45.644;13.782;2023-07-09T05:23:30;6.20;;;4.65;;
79149;SDS011;68563;45.644;13.782;2023-07-09T05:25:56;7.80;;;4.63;;
79149;SDS011;68563;45.644;13.782;2023-07-09T05:28:23;8.68;;;5.28;;
79149;SDS011;68563;45.644;13.782;2023-07-09T05:30:48;7.95;;;5.10;;
79149;SDS011;68563;45.644;13.782;2023-07-09T05:33:14;8.27;;;5.22;;
79149;SDS011;68563;45.644;13.782;2023-07-09T05:35:42;6.55;;;5.18;;
79149;SDS011;68563;45.644;13.782;2023-07-09T05:38:07;7.05;;;5.20;;
79149;SDS011;68563;45.644;13.782;2023-07-09T05:40:33;8.00;;;5.18;;
79149;SDS011;68563;45.644;13.782;2023-07-09T05:42:58;9.32;;;4.97;;
79149;SDS011;68563;45.644;13.782;2023-07-09T05:45:24;8.20;;;5.32;;
79149;SDS011;68563;45.644;13.782;2023-07-09T05:47:49;7.93;;;4.90;;
79149;SDS011;68563;45.644;13.782;2023-07-09T05:50:14;7.00;;;5.03;;
79149;SDS011;68563;45.644;13.782;2023-07-09T05:52:40;10.15;;;4.55;;
79149;SDS011;68563;45.644;13.782;2023-07-09T05:55:05;8.45;;;4.95;;
79149;SDS011;68563;45.644;13.782;2023-07-09T05:57:31;7.47;;;5.00;;
79149;SDS011;68563;45.644;13.782;2023-07-09T05:59:56;9.05;;;4.93;;
79149;SDS011;68563;45.644;13.782;2023-07-09T06:02:22;7.47;;;5.25;;
79149;SDS011;68563;45.644;13.782;2023-07-09T06:04:47;8.57;;;6.03;;
79149;SDS011;68563;45.644;13.782;2023-07-09T06:07:16;9.07;;;5.60;;
79149;SDS011;68563;45.644;13.782;2023-07-09T06:09:41;6.65;;;4.85;;
79149;SDS011;68563;45.644;13.782;2023-07-09T06:12:07;10.50;;;5.60;;
79149;SDS011;68563;45.644;13.782;2023-07-09T06:14:34;6.65;;;5.00;;
79149;SDS011;68563;45.644;13.782;2023-07-09T06:17:00;9.55;;;5.28;;
79149;SDS011;68563;45.644;13.782;2023-07-09T06:19:26;6.93;;;5.57;;
79149;SDS011;68563;45.644;13.782;2023-07-09T06:21:52;8.55;;;5.43;;
79149;SDS011;68563;45.644;13.782;2023-07-09T06:24:17;7.28;;;4.90;;
79149;SDS011;68563;45.644;13.782;2023-07-09T06:26:42;5.97;;;5.10;;
79149;SDS011;68563;45.644;13.782;2023-07-09T06:29:08;9.60;;;5.20;;
79149;SDS011;68563;45.644;13.782;2023-07-09T06:31:33;9.40;;;5.30;;
79149;SDS011;68563;45.644;13.782;2023-07-09T06:33:59;6.95;;;5.55;;
79149;SDS011;68563;45.644;13.782;2023-07-09T06:36:24;7.53;;;5.15;;
79149;SDS011;68563;45.644;13.782;2023-07-09T06:38:49;6.32;;;4.90;;
79149;SDS011;68563;45.644;13.782;2023-07-09T06:41:15;10.02;;;6.03;;
79149;SDS011;68563;45.644;13.782;2023-07-09T06:43:41;8.60;;;5.45;;
79149;SDS011;68563;45.644;13.782;2023-07-09T06:46:10;7.90;;;5.57;;
79149;SDS011;68563;45.644;13.782;2023-07-09T06:48:36;9.88;;;5.47;;
79149;SDS011;68563;45.644;13.782;2023-07-09T06:51:02;7.50;;;5.47;;
79149;SDS011;68563;45.644;13.782;2023-07-09T06:53:28;9.85;;;6.28;;
79149;SDS011;68563;45.644;13.782;2023-07-09T06:55:54;12.10;;;5.25;;
79149;SDS011;68563;45.644;13.782;2023-07-09T06:58:23;9.43;;;5.43;;
79149;SDS011;68563;45.644;13.782;2023-07-09T07:00:52;8.90;;;5.25;;
79149;SDS011;68563;45.644;13.782;2023-07-09T07:03:21;6.93;;;5.45;;
79149;SDS011;68563;45.644;13.782;2023-07-09T07:05:48;8.70;;;6.00;;
79149;SDS011;68563;45.644;13.782;2023-07-09T07:08:15;9.95;;;5.50;;
79149;SDS011;68563;45.644;13.782;2023-07-09T07:10:42;11.60;;;5.95;;
79149;SDS011;68563;45.644;13.782;2023-07-09T07:13:08;8.02;;;5.55;;
79149;SDS011;68563;45.644;13.782;2023-07-09T07:15:36;12.82;;;5.45;;
79149;SDS011;68563;45.644;13.782;2023-07-09T07:18:02;7.07;;;5.55;;
79149;SDS011;68563;45.644;13.782;2023-07-09T07:20:29;9.13;;;5.60;;
79149;SDS011;68563;45.644;13.782;2023-07-09T07:22:55;8.18;;;5.55;;
79149;SDS011;68563;45.644;13.782;2023-07-09T07:25:21;7.30;;;5.53;;
79149;SDS011;68563;45.644;13.782;2023-07-09T07:27:47;7.90;;;5.60;;
79149;SDS011;68563;45.644;13.782;2023-07-09T07:30:12;9.95;;;5.85;;
79149;SDS011;68563;45.644;13.782;2023-07-09T07:32:39;10.57;;;5.50;;
79149;SDS011;68563;45.644;13.782;2023-07-09T07:35:09;10.20;;;5.78;;
79149;SDS011;68563;45.644;13.782;2023-07-09T07:37:35;10.00;;;6.30;;
79149;SDS011;68563;45.644;13.782;2023-07-09T07:40:00;9.23;;;6.22;;
79149;SDS011;68563;45.644;13.782;2023-07-09T07:42:26;8.82;;;5.72;;
79149;SDS011;68563;45.644;13.782;2023-07-09T07:44:52;7.53;;;5.38;;
79149;SDS011;68563;45.644;13.782;2023-07-09T07:47:18;7.68;;;5.50;;
79149;SDS011;68563;45.644;13.782;2023-07-09T07:49:44;9.13;;;5.82;;
79149;SDS011;68563;45.644;13.782;2023-07-09T07:52:09;11.75;;;5.45;;
79149;SDS011;68563;45.644;13.782;2023-07-09T07:54:35;8.02;;;5.63;;
79149;SDS011;68563;45.644;13.782;2023-07-09T07:57:00;7.97;;;5.60;;
79149;SDS011;68563;45.644;13.782;2023-07-09T07:59:26;8.13;;;5.38;;
79149;SDS011;68563;45.644;13.782;2023-07-09T08:01:52;9.40;;;5.50;;
79149;SDS011;68563;45.644;13.782;2023-07-09T08:04:17;9.40;;;5.68;;
79149;SDS011;68563;45.644;13.782;2023-07-09T08:06:43;7.50;;;5.10;;
79149;SDS011;68563;45.644;13.782;2023-07-09T08:09:08;6.95;;;4.75;;
79149;SDS011;68563;45.644;13.782;2023-07-09T08:11:34;9.82;;;5.28;;
79149;SDS011;68563;45.644;13.782;2023-07-09T08:14:00;10.20;;;5.40;;
79149;SDS011;68563;45.644;13.782;2023-07-09T08:16:25;8.60;;;5.70;;
79149;SDS011;68563;45.644;13.782;2023-07-09T08:18:52;7.25;;;5.68;;
79149;SDS011;68563;45.644;13.782;2023-07-09T08:21:17;7.18;;;5.60;;
79149;SDS011;68563;45.644;13.782;2023-07-09T08:23:44;8.52;;;5.32;;
79149;SDS011;68563;45.644;13.782;2023-07-09T08:26:10;9.40;;;5.47;;
79149;SDS011;68563;45.644;13.782;2023-07-09T08:28:35;8.15;;;5.32;;
79149;SDS011;68563;45.644;13.782;2023-07-09T08:31:02;8.02;;;5.25;;
79149;SDS011;68563;45.644;13.782;2023-07-09T08:33:28;8.65;;;5.45;;
79149;SDS011;68563;45.644;13.782;2023-07-09T08:35:53;9.43;;;5.68;;
79149;SDS011;68563;45.644;13.782;2023-07-09T08:38:19;7.20;;;5.55;;
79149;SDS011;68563;45.644;13.782;2023-07-09T08:40:49;9.82;;;5.13;;
79149;SDS011;68563;45.644;13.782;2023-07-09T08:43:31;10.02;;;5.60;;
79149;SDS011;68563;45.644;13.782;2023-07-09T08:48:59;7.35;;;5.78;;
79149;SDS011;68563;45.644;13.782;2023-07-09T08:51:39;7.60;;;5.65;;
79149;SDS011;68563;45.644;13.782;2023-07-09T08:54:09;6.63;;;5.07;;
79149;SDS011;68563;45.644;13.782;2023-07-09T08:56:45;9.68;;;6.00;;
79149;SDS011;68563;45.644;13.782;2023-07-09T08:59:11;7.68;;;5.28;;
79149;SDS011;68563;45.644;13.782;2023-07-09T09:01:46;9.25;;;6.25;;
79149;SDS011;68563;45.644;13.782;2023-07-09T09:04:27;8.93;;;5.63;;
79149;SDS011;68563;45.644;13.782;2023-07-09T09:07:17;8.65;;;5.40;;
79149;SDS011;68563;45.644;13.782;2023-07-09T09:09:58;11.70;;;5.63;;
79149;SDS011;68563;45.644;13.782;2023-07-09T09:12:28;6.72;;;5.57;;
79149;SDS011;68563;45.644;13.782;2023-07-09T09:15:03;8.13;;;6.07;;
79149;SDS011;68563;45.644;13.782;2023-07-09T09:17:35;7.88;;;5.90;;
79149;SDS011;68563;45.644;13.782;2023-07-09T09:20:16;10.30;;;6.40;;
79149;SDS011;68563;45.644;13.782;2023-07-09T09:22:52;8.30;;;6.15;;
79149;SDS011;68563;45.644;13.782;2023-07-09T09:25:35;9.77;;;6.13;;
79149;SDS011;68563;45.644;13.782;2023-07-09T09:28:05;8.80;;;5.97;;
79149;SDS011;68563;45.644;13.782;2023-07-09T09:30:30;8.73;;;6.07;;
79149;SDS011;68563;45.644;13.782;2023-07-09T09:32:59;9.70;;;6.20;;
79149;SDS011;68563;45.644;13.782;2023-07-09T09:35:47;9.10;;;6.15;;
79149;SDS011;68563;45.644;13.782;2023-07-09T09:38:21;9.95;;;6.22;;
79149;SDS011;68563;45.644;13.782;2023-07-09T09:40:47;8.63;;;5.97;;
79149;SDS011;68563;45.644;13.782;2023-07-09T09:43:22;12.13;;;7.10;;
79149;SDS011;68563;45.644;13.782;2023-07-09T09:45:49;11.43;;;5.93;;
79149;SDS011;68563;45.644;13.782;2023-07-09T09:48:17;10.45;;;5.88;;
79149;SDS011;68563;45.644;13.782;2023-07-09T09:50:53;9.45;;;6.70;;
79149;SDS011;68563;45.644;13.782;2023-07-09T09:53:21;10.63;;;6.28;;
79149;SDS011;68563;45.644;13.782;2023-07-09T09:55:48;8.68;;;5.97;;
79149;SDS011;68563;45.644;13.782;2023-07-09T09:58:15;6.45;;;5.55;;
79149;SDS011;68563;45.644;13.782;2023-07-09T10:00:46;8.07;;;5.55;;
79149;SDS011;68563;45.644;13.782;2023-07-09T10:03:14;8.90;;;5.55;;
79149;SDS011;68563;45.644;13.782;2023-07-09T10:05:53;8.55;;;5.85;;
79149;SDS011;68563;45.644;13.782;2023-07-09T10:14:22;8.10;;;5.93;;
79149;SDS011;68563;45.644;13.782;2023-07-09T10:22:53;6.93;;;5.18;;
79149;SDS011;68563;45.644;13.782;2023-07-09T10:28:01;11.82;;;5.85;;
79149;SDS011;68563;45.644;13.782;2023-07-09T10:33:40;7.60;;;5.88;;
79149;SDS011;68563;45.644;13.782;2023-07-09T10:41:55;11.20;;;6.47;;
79149;SDS011;68563;45.644;13.782;2023-07-09T10:49:51;7.40;;;6.13;;
79149;SDS011;68563;45.644;13.782;2023-07-09T10:52:36;8.00;;;6.32;;
79149;SDS011;68563;45.644;13.782;2023-07-09T11:00:32;8.30;;;5.43;;
79149;SDS011;68563;45.644;13.782;2023-07-09T11:03:05;8.70;;;6.00;;
79149;SDS011;68563;45.644;13.782;2023-07-09T11:05:37;10.63;;;6.32;;
79149;SDS011;68563;45.644;13.782;2023-07-09T11:08:06;9.68;;;5.65;;
79149;SDS011;68563;45.644;13.782;2023-07-09T11:10:39;10.95;;;6.57;;
79149;SDS011;68563;45.644;13.782;2023-07-09T11:15:42;7.47;;;5.85;;
79149;SDS011;68563;45.644;13.782;2023-07-09T11:18:13;6.25;;;5.10;;
79149;SDS011;68563;45.644;13.782;2023-07-09T11:20:47;8.07;;;5.43;;
79149;SDS011;68563;45.644;13.782;2023-07-09T11:23:43;7.35;;;5.35;;
79149;SDS011;68563;45.644;13.782;2023-07-09T11:26:22;10.00;;;6.15;;
79149;SDS011;68563;45.644;13.782;2023-07-09T11:31:43;8.05;;;5.32;;
79149;SDS011;68563;45.644;13.782;2023-07-09T11:37:20;7.32;;;5.32;;
79149;SDS011;68563;45.644;13.782;2023-07-09T11:39:42;7.30;;;5.20;;
79149;SDS011;68563;45.644;13.782;2023-07-09T11:42:27;6.25;;;5.00;;
79149;SDS011;68563;45.644;13.782;2023-07-09T11:44:58;6.28;;;4.63;;
79149;SDS011;68563;45.644;13.782;2023-07-09T11:47:33;7.20;;;5.40;;
79149;SDS011;68563;45.644;13.782;2023-07-09T11:50:04;6.90;;;5.13;;
79149;SDS011;68563;45.644;13.782;2023-07-09T11:52:44;8.95;;;5.30;;
79149;SDS011;68563;45.644;13.782;2023-07-09T11:55:28;9.30;;;5.75;;
79149;SDS011;68563;45.644;13.782;2023-07-09T11:58:01;7.72;;;5.93;;
79149;SDS011;68563;45.644;13.782;2023-07-09T12:00:29;8.18;;;5.85;;
79149;SDS011;68563;45.644;13.782;2023-07-09T12:03:04;10.02;;;5.13;;
79149;SDS011;68563;45.644;13.782;2023-07-09T12:05:31;6.45;;;4.95;;
79149;SDS011;68563;45.644;13.782;2023-07-09T12:07:57;8.13;;;4.93;;
79149;SDS011;68563;45.644;13.782;2023-07-09T12:10:25;6.40;;;4.65;;
79149;SDS011;68563;45.644;13.782;2023-07-09T12:12:53;5.35;;;4.75;;
79149;SDS011;68563;45.644;13.782;2023-07-09T12:15:22;7.15;;;5.00;;
79149;SDS011;68563;45.644;13.782;2023-07-09T12:17:55;8.55;;;5.22;;
79149;SDS011;68563;45.644;13.782;2023-07-09T12:20:36;5.68;;;4.63;;
79149;SDS011;68563;45.644;13.782;2023-07-09T12:26:02;7.30;;;4.40;;
79149;SDS011;68563;45.644;13.782;2023-07-09T12:28:29;6.45;;;4.20;;
79149;SDS011;68563;45.644;13.782;2023-07-09T12:30:55;6.57;;;4.43;;
79149;SDS011;68563;45.644;13.782;2023-07-09T12:33:23;5.80;;;5.00;;
79149;SDS011;68563;45.644;13.782;2023-07-09T12:35:54;6.47;;;5.13;;
79149;SDS011;68563;45.644;13.782;2023-07-09T12:38:23;5.43;;;4.80;;
79149;SDS011;68563;45.644;13.782;2023-07-09T12:40:51;6.80;;;4.75;;
79149;SDS011;68563;45.644;13.782;2023-07-09T12:43:28;6.80;;;4.20;;
79149;SDS011;68563;45.644;13.782;2023-07-09T12:45:56;7.93;;;5.18;;
79149;SDS011;68563;45.644;13.782;2023-07-09T12:48:25;7.47;;;4.75;;
79149;SDS011;68563;45.644;13.782;2023-07-09T12:50:54;6.57;;;4.78;;
79149;SDS011;68563;45.644;13.782;2023-07-09T12:53:22;4.90;;;3.92;;
79149;SDS011;68563;45.644;13.782;2023-07-09T12:55:51;4.75;;;3.42;;
79149;SDS011;68563;45.644;13.782;2023-07-09T12:58:23;4.90;;;3.30;;
79149;SDS011;68563;45.644;13.782;2023-07-09T13:00:57;4.50;;;3.15;;
79149;SDS011;68563;45.644;13.782;2023-07-09T13:03:27;5.53;;;4.00;;
79149;SDS011;68563;45.644;13.782;2023-07-09T13:06:01;5.93;;;3.63;;
79149;SDS011;68563;45.644;13.782;2023-07-09T13:08:29;5.85;;;3.47;;
79149;SDS011;68563;45.644;13.782;2023-07-09T13:10:57;4.30;;;3.65;;
79149;SDS011;68563;45.644;13.782;2023-07-09T13:13:23;5.70;;;4.07;;
79149;SDS011;68563;45.644;13.782;2023-07-09T13:16:00;6.20;;;3.75;;
79149;SDS011;68563;45.644;13.782;2023-07-09T13:18:27;4.55;;;3.78;;
79149;SDS011;68563;45.644;13.782;2023-07-09T13:20:54;4.35;;;3.50;;
79149;SDS011;68563;45.644;13.782;2023-07-09T13:23:24;5.50;;;3.72;;
79149;SDS011;68563;45.644;13.782;2023-07-09T13:25:55;6.95;;;3.78;;
79149;SDS011;68563;45.644;13.782;2023-07-09T13:28:28;5.80;;;3.83;;
79149;SDS011;68563;45.644;13.782;2023-07-09T13:31:00;4.60;;;3.10;;
79149;SDS011;68563;45.644;13.782;2023-07-09T13:33:35;4.38;;;3.20;;
79149;SDS011;68563;45.644;13.782;2023-07-09T13:36:02;6.50;;;3.28;;
79149;SDS011;68563;45.644;13.782;2023-07-09T13:38:28;4.93;;;3.33;;
79149;SDS011;68563;45.644;13.782;2023-07-09T13:40:59;4.53;;;3.40;;
79149;SDS011;68563;45.644;13.782;2023-07-09T13:45:54;4.57;;;3.17;;
79149;SDS011;68563;45.644;13.782;2023-07-09T13:48:21;3.67;;;2.90;;
79149;SDS011;68563;45.644;13.782;2023-07-09T13:50:47;3.85;;;3.08;;
79149;SDS011;68563;45.644;13.782;2023-07-09T13:53:19;5.47;;;3.20;;
79149;SDS011;68563;45.644;13.782;2023-07-09T13:55:49;3.22;;;2.90;;
79149;SDS011;68563;45.644;13.782;2023-07-09T13:58:21;4.10;;;3.20;;
79149;SDS011;68563;45.644;13.782;2023-07-09T14:00:49;3.97;;;3.30;;
79149;SDS011;68563;45.644;13.782;2023-07-09T14:03:20;3.65;;;2.95;;
79149;SDS011;68563;45.644;13.782;2023-07-09T14:05:47;4.55;;;3.22;;
79149;SDS011;68563;45.644;13.782;2023-07-09T14:08:13;5.00;;;3.58;;
79149;SDS011;68563;45.644;13.782;2023-07-09T14:10:39;4.68;;;3.60;;
79149;SDS011;68563;45.644;13.782;2023-07-09T14:13:05;5.97;;;3.65;;
79149;SDS011;68563;45.644;13.782;2023-07-09T14:15:31;3.85;;;3.38;;
79149;SDS011;68563;45.644;13.782;2023-07-09T14:17:56;3.88;;;3.45;;
79149;SDS011;68563;45.644;13.782;2023-07-09T14:20:22;3.88;;;3.47;;
79149;SDS011;68563;45.644;13.782;2023-07-09T14:22:48;5.60;;;3.67;;
79149;SDS011;68563;45.644;13.782;2023-07-09T14:25:18;5.35;;;3.35;;
79149;SDS011;68563;45.644;13.782;2023-07-09T14:27:47;6.82;;;3.30;;
79149;SDS011;68563;45.644;13.782;2023-07-09T14:30:18;4.18;;;3.42;;
79149;SDS011;68563;45.644;13.782;2023-07-09T14:32:44;5.25;;;3.30;;
79149;SDS011;68563;45.644;13.782;2023-07-09T14:35:12;6.25;;;3.65;;
79149;SDS011;68563;45.644;13.782;2023-07-09T14:37:43;3.60;;;3.20;;
79149;SDS011;68563;45.644;13.782;2023-07-09T14:40:10;5.20;;;3.58;;
79149;SDS011;68563;45.644;13.782;2023-07-09T14:42:39;3.63;;;3.28;;
79149;SDS011;68563;45.644;13.782;2023-07-09T14:45:06;5.07;;;3.28;;
79149;SDS011;68563;45.644;13.782;2023-07-09T14:47:42;4.22;;;3.00;;
79149;SDS011;68563;45.644;13.782;2023-07-09T14:50:08;5.90;;;3.15;;
79149;SDS011;68563;45.644;13.782;2023-07-09T14:52:34;4.35;;;3.15;;
79149;SDS011;68563;45.644;13.782;2023-07-09T14:55:00;3.65;;;3.10;;
79149;SDS011;68563;45.644;13.782;2023-07-09T14:57:26;3.72;;;3.08;;
79149;SDS011;68563;45.644;13.782;2023-07-09T14:59:55;5.68;;;3.35;;
79149;SDS011;68563;45.644;13.782;2023-07-09T15:04:57;5.78;;;3.78;;
79149;SDS011;68563;45.644;13.782;2023-07-09T15:07:22;3.70;;;3.30;;
79149;SDS011;68563;45.644;13.782;2023-07-09T15:09:48;5.18;;;3.42;;
79149;SDS011;68563;45.644;13.782;2023-07-09T15:12:25;4.20;;;3.13;;
79149;SDS011;68563;45.644;13.782;2023-07-09T15:14:58;4.90;;;3.20;;
79149;SDS011;68563;45.644;13.782;2023-07-09T15:17:38;4.22;;;3.42;;
79149;SDS011;68563;45.644;13.782;2023-07-09T15:20:04;4.05;;;3.45;;
79149;SDS011;68563;45.644;13.782;2023-07-09T15:22:33;6.78;;;3.58;;
79149;SDS011;68563;45.644;13.782;2023-07-09T15:25:00;5.45;;;3.28;;
79149;SDS011;68563;45.644;13.782;2023-07-09T15:27:26;4.97;;;3.35;;
79149;SDS011;68563;45.644;13.782;2023-07-09T15:29:52;6.80;;;3.53;;
79149;SDS011;68563;45.644;13.782;2023-07-09T15:32:18;5.93;;;3.40;;
79149;SDS011;68563;45.644;13.782;2023-07-09T15:34:43;5.20;;;3.45;;
79149;SDS011;68563;45.644;13.782;2023-07-09T15:37:13;3.88;;;3.42;;
79149;SDS011;68563;45.644;13.782;2023-07-09T15:39:40;5.28;;;3.40;;
79149;SDS011;68563;45.644;13.782;2023-07-09T15:42:12;6.45;;;3.63;;